Calgary International Airport

CYYC · 艾伯塔, 加拿大

罗盘
风向 的 风向 的 风向 到 风向 080° Calgary International Airport 8/26
风: 4 kt, 2 beaufort

4 kt

1 kt
改变
0 1.000 2.000 3.000 4.000 5.000
FEW 2.500 ft
METAR CYYC 012200Z 08004KT 350V100 15SM FEW025 M20/M26 A2962 RMK SC1 SLP134

METAR Calgary International Airport - CYYC/YYC

Calgary International Airport是,加拿大中的大型机场。 该机场有5条跑道: 8/26, 11/29, 17L/35R, 17R/35L 和 17/35. 该领域的国际民航组织标志是CYYC 它的国际航空运输协会代码是YYC.

这份报告是针对2022年12月1日 15:00, 当地时间在Calgary International Airport进行的。

机场观察

风向为080°,速度为4 kt。 风向在350°和100°之间变化。

可见度为15 mi。

有几云在2.500 ft的高度。 没有观察到天花板。

温度为-20 °C,阵风为-29 °C。 露点为-26 °C,相对湿度为59%。 海平面上的气压为29,62 inHg (QNH)。

白天

今天,太阳从08:18升起,在16:32降落。 这适用于Calgary International Airport,世界夏令时可能有所不同。 当地时间与世界标准时间之间的时差为-7 小时。 当前,没有夏令时有效。

公司介绍

我们没有关于这个机场的公司信息。

体会

到Vliegles.nl去找飞行课程,跳伞和其他飞行体验。 浏览页面,了解Calgary International Airport附近所有可用的活动。 你也可以使用搜索功能来寻找你所在地附近的特定飞行课程、跳伞或其他飞行体验。

跑道

Id 标题 侧风 逆风 侧风 %
8/26 090°-270° 4 kt 17 %
11/29 120°-300° 3 kt 3 kt 64 %
17L/35R 180°-360° 4 kt 98 %
17R/35L 180°-360° 4 kt 98 %
17/35 180°-360° 4 kt 98 %

逆风成分最大的方向会被突出显示,并用于横风计算。 这并不一定意味着这个方向在使用。

乌云

2.500 ft FEW 几云

温度 & 天气

温度 -20 °C
露点 -26 °C
相对湿度 59%
风寒 -29 °C
Kp-index 4 (0-9)

评论

SLP134海平面压力为29,93 inHg (29,93 inHg)
SC1

白天

日出
08:18
中午
12:25
日落
16:32 (34m)

小工具

你想在你的网站上有一个关于Calgary International Airport的当前航空天气(METAR)的小部件吗?

显示HTML代码

我们和第三方通过cookies跟踪您在我们网站上的互联网行为。如果你继续,我们认为你同意我们的饼干政策